Time;durP1;ratioP1;P1;durP2;ratioP2;P2;SDS_P1;SDS_P2;PMS_P1;PMS_P2;Temp;Humidity;BMP_temperature;BMP_pressure;BME280_temperature;BME280_humidity;BME280_pressure;Samples;Min_cycle;Max_cycle;Signal;HPM_P1;HPM_P2
2020/12/11 00:01:04;;;;;;;59.97;21.75;;;;;;;0.16;91.14;99856.31;3492498;28;20052;-41
2020/12/11 00:02:46;;;;;;;53.70;20.75;;;;;;;0.16;91.06;99849.53;3495104;28;20052;-42
2020/12/11 00:04:27;;;;;;;59.83;22.95;;;;;;;0.17;90.88;99847.88;3490918;28;20516;-41
2020/12/11 00:06:09;;;;;;;50.38;20.98;;;;;;;0.16;91.07;99839.34;3493880;28;20429;-42
2020/12/11 00:07:50;;;;;;;62.25;22.17;;;;;;;0.17;90.92;99837.66;3492062;28;20532;-41
2020/12/11 00:09:32;;;;;;;69.50;22.63;;;;;;;0.17;90.70;99841.13;3492721;28;20052;-42
2020/12/11 00:11:13;;;;;;;60.75;21.00;;;;;;;0.17;90.93;99838.56;3491944;28;20048;-42
2020/12/11 00:12:55;;;;;;;65.63;22.92;;;;;;;0.18;90.82;99836.88;3493800;28;20074;-42
2020/12/11 00:14:37;;;;;;;64.05;22.63;;;;;;;0.19;90.62;99833.56;3493243;28;20174;-42
2020/12/11 00:16:19;;;;;;;58.95;22.20;;;;;;;0.20;90.54;99835.28;3493787;28;20460;-42
2020/12/11 00:18:01;;;;;;;50.60;20.92;;;;;;;0.21;90.89;99826.88;3492139;28;20794;-41
2020/12/11 00:19:42;;;;;;;57.28;20.85;;;;;;;0.19;90.42;99839.53;3492714;28;20422;-42
2020/12/11 00:21:24;;;;;;;52.97;20.92;;;;;;;0.20;90.64;99832.75;3493731;28;20088;-42
2020/12/11 00:23:05;;;;;;;64.95;22.77;;;;;;;0.21;90.59;99834.50;3493592;28;20387;-42
2020/12/11 00:24:47;;;;;;;51.42;21.58;;;;;;;0.21;90.45;99827.72;3491443;28;20056;-51
2020/12/11 00:26:29;;;;;;;56.45;20.98;;;;;;;0.21;90.53;99825.19;3492579;28;20044;-48
2020/12/11 00:28:11;;;;;;;51.38;20.48;;;;;;;0.22;90.36;99826.97;3491978;28;20517;-49
2020/12/11 00:29:52;;;;;;;50.15;20.25;;;;;;;0.22;90.45;99826.97;3490278;28;20489;-42
2020/12/11 00:31:34;;;;;;;52.08;21.02;;;;;;;0.22;90.18;99829.50;3491922;28;20052;-42
2020/12/11 00:33:15;;;;;;;48.45;18.70;;;;;;;0.23;90.40;99823.59;3491543;28;20055;-42
2020/12/11 00:34:57;;;;;;;46.63;19.27;;;;;;;0.23;90.30;99826.16;3493246;28;20562;-42
2020/12/11 00:36:39;;;;;;;45.92;18.83;;;;;;;0.25;90.17;99830.47;3493179;28;20072;-42
2020/12/11 00:38:20;;;;;;;49.83;21.80;;;;;;;0.26;90.03;99819.44;3491677;28;20055;-42
2020/12/11 00:40:02;;;;;;;46.88;20.40;;;;;;;0.26;90.03;99830.56;3493080;28;20048;-42
2020/12/11 00:41:44;;;;;;;50.38;20.10;;;;;;;0.26;90.33;99820.34;3491658;28;20497;-42
2020/12/11 00:43:26;;;;;;;54.50;21.30;;;;;;;0.27;90.35;99819.53;3492444;28;20516;-54
2020/12/11 00:45:07;;;;;;;60.53;19.42;;;;;;;0.27;90.24;99821.22;3494874;28;20151;-42
2020/12/11 00:46:49;;;;;;;47.78;19.67;;;;;;;0.27;90.12;99821.22;3491205;28;20075;-42
2020/12/11 00:48:31;;;;;;;46.88;18.05;;;;;;;0.27;90.16;99822.09;3495172;28;20048;-48
2020/12/11 00:50:13;;;;;;;43.38;17.58;;;;;;;0.28;89.92;99822.97;3487611;28;20053;-48
2020/12/11 00:51:55;;;;;;;44.85;18.90;;;;;;;0.27;90.08;99826.31;3495096;28;20044;-48
2020/12/11 00:53:37;;;;;;;44.20;17.27;;;;;;;0.27;90.22;99832.31;3491307;28;20052;-50
2020/12/11 00:55:21;;;;;;;51.67;20.23;;;;;;;0.27;90.18;99827.19;3495529;28;20045;-42
2020/12/11 00:57:02;;;;;;;45.67;19.00;;;;;;;0.27;90.23;99824.66;3491838;28;20044;-42
2020/12/11 00:58:45;;;;;;;43.90;18.05;;;;;;;0.28;89.90;99822.97;3495564;28;20091;-42
2020/12/11 01:00:26;;;;;;;47.38;19.42;;;;;;;0.27;89.94;99817.00;3490840;28;20076;-50
2020/12/11 01:02:08;;;;;;;41.72;19.45;;;;;;;0.28;89.82;99822.97;3494786;28;20040;-49
2020/12/11 01:03:50;;;;;;;40.78;18.08;;;;;;;0.28;89.85;99818.75;3492363;28;20425;-42
2020/12/11 01:05:32;;;;;;;39.55;18.65;;;;;;;0.27;90.04;99816.13;3494029;28;20048;-52
2020/12/11 01:07:13;;;;;;;40.15;17.75;;;;;;;0.28;89.86;99812.75;3490988;28;20590;-49
2020/12/11 01:08:55;;;;;;;43.80;19.95;;;;;;;0.29;89.74;99814.53;3492750;28;20103;-48
2020/12/11 01:10:37;;;;;;;35.55;17.70;;;;;;;0.28;89.71;99811.13;3493249;28;20048;-42
2020/12/11 01:12:18;;;;;;;45.55;18.70;;;;;;;0.29;89.85;99824.75;3492898;28;20052;-42
2020/12/11 01:14:00;;;;;;;42.90;18.05;;;;;;;0.29;89.68;99824.75;3491577;28;20053;-48
2020/12/11 01:15:42;;;;;;;40.17;18.60;;;;;;;0.29;89.85;99822.19;3493376;28;20473;-48
2020/12/11 01:17:23;;;;;;;45.53;18.65;;;;;;;0.29;89.87;99819.63;3491855;28;20532;-48
2020/12/11 01:19:05;;;;;;;41.92;17.83;;;;;;;0.29;89.53;99810.28;3491462;28;20052;-48
2020/12/11 01:20:47;;;;;;;40.83;17.30;;;;;;;0.30;89.58;99814.63;3493202;28;20060;-49
2020/12/11 01:22:28;;;;;;;40.00;17.73;;;;;;;0.30;89.67;99816.31;3492341;28;20052;-50
2020/12/11 01:24:10;;;;;;;38.78;19.33;;;;;;;0.30;89.76;99808.66;3492565;28;20235;-43
2020/12/11 01:25:51;;;;;;;46.25;17.85;;;;;;;0.31;89.62;99810.38;3492556;28;20491;-42
2020/12/11 01:27:33;;;;;;;50.50;20.08;;;;;;;0.32;89.58;99804.50;3493850;28;20139;-42
2020/12/11 01:29:15;;;;;;;36.17;15.85;;;;;;;0.34;89.69;99808.03;3492119;28;20044;-42
2020/12/11 01:30:57;;;;;;;40.97;17.00;;;;;;;0.33;89.56;99804.59;3492959;28;20405;-43
2020/12/11 01:32:38;;;;;;;38.75;18.13;;;;;;;0.33;89.44;99812.25;3492699;28;20055;-43
2020/12/11 01:34:20;;;;;;;42.65;16.92;;;;;;;0.33;89.58;99803.69;3493761;28;20174;-48
2020/12/11 01:36:01;;;;;;;32.40;16.42;;;;;;;0.34;89.62;99800.38;3493134;28;20048;-49
2020/12/11 01:37:43;;;;;;;38.10;15.68;;;;;;;0.34;89.68;99805.47;3494458;28;20445;-48
2020/12/11 01:39:24;;;;;;;36.28;17.17;;;;;;;0.34;89.44;99798.69;3491113;28;20113;-42
2020/12/11 01:41:06;;;;;;;33.42;16.17;;;;;;;0.34;89.56;99793.59;3494167;28;20481;-50
2020/12/11 01:42:47;;;;;;;38.72;15.95;;;;;;;0.34;89.53;99793.59;3492009;28;20090;-48
2020/12/11 01:44:29;;;;;;;38.40;16.83;;;;;;;0.35;89.56;99797.91;3494063;28;20082;-42
2020/12/11 01:46:15;;;;;;;36.47;16.02;;;;;;;0.35;89.46;99791.94;3489894;28;20052;-43
2020/12/11 01:47:57;;;;;;;40.00;15.90;;;;;;;0.35;89.54;99792.81;3492529;28;20044;-43
2020/12/11 01:49:39;;;;;;;38.80;16.52;;;;;;;0.35;89.60;99790.25;3494221;28;20055;-42
2020/12/11 01:51:20;;;;;;;38.53;16.60;;;;;;;0.35;89.54;99792.81;3497340;28;20049;-42
2020/12/11 01:53:01;;;;;;;32.80;15.52;;;;;;;0.36;89.57;99791.13;3493977;28;20079;-42
2020/12/11 01:54:44;;;;;;;33.20;15.82;;;;;;;0.36;89.57;99783.47;3497254;28;20072;-42
2020/12/11 01:56:29;;;;;;;36.63;16.95;;;;;;;0.37;89.35;99791.22;3492612;28;20044;-42
2020/12/11 01:58:18;;;;;;;36.83;16.63;;;;;;;0.37;89.35;99786.09;3495777;28;20052;-50
2020/12/11 02:00:05;;;;;;;33.40;16.70;;;;;;;0.37;89.47;99786.09;3494135;28;20072;-48
2020/12/11 02:01:48;;;;;;;38.00;15.73;;;;;;;0.37;89.32;99782.69;3495786;28;20048;-41
2020/12/11 02:03:29;;;;;;;41.75;16.70;;;;;;;0.37;89.21;99782.69;3496050;28;20052;-42
2020/12/11 02:05:11;;;;;;;44.20;16.90;;;;;;;0.37;89.43;99782.69;3493607;28;20044;-42
2020/12/11 02:06:52;;;;;;;42.42;16.70;;;;;;;0.37;89.53;99780.13;3494666;28;20055;-42
2020/12/11 02:08:34;;;;;;;32.22;15.63;;;;;;;0.37;89.35;99781.00;3492159;28;20595;-42
2020/12/11 02:10:16;;;;;;;33.88;15.75;;;;;;;0.37;89.47;99785.25;3495400;28;20414;-42
2020/12/11 02:11:57;;;;;;;34.25;15.77;;;;;;;0.36;89.30;99776.69;3493451;28;20048;-42
2020/12/11 02:13:42;;;;;;;35.15;14.98;;;;;;;0.37;89.52;99785.25;3495062;28;20075;-42
2020/12/11 02:15:24;;;;;;;34.60;15.65;;;;;;;0.36;89.48;99779.22;3492067;28;20041;-42
2020/12/11 02:17:06;;;;;;;36.17;15.77;;;;;;;0.37;89.21;99775.03;3496167;28;20079;-42
2020/12/11 02:18:48;;;;;;;38.10;16.90;;;;;;;0.37;89.13;99781.00;3491648;28;20052;-49
2020/12/11 02:20:30;;;;;;;30.63;13.35;;;;;;;0.36;89.11;99792.00;3496836;28;20063;-49
2020/12/11 02:22:12;;;;;;;36.38;16.38;;;;;;;0.37;89.24;99790.34;3494132;28;20494;-48
2020/12/11 02:23:53;;;;;;;33.22;15.15;;;;;;;0.37;88.88;99786.09;3495233;28;20052;-42
2020/12/11 02:25:35;;;;;;;35.60;14.25;;;;;;;0.36;89.13;99781.78;3492343;28;20131;-47
2020/12/11 02:27:16;;;;;;;31.05;14.77;;;;;;;0.35;89.34;99785.16;3496905;28;20045;-48
2020/12/11 02:28:58;;;;;;;35.97;15.32;;;;;;;0.35;89.01;99784.28;3490981;28;20076;-48
2020/12/11 02:30:39;;;;;;;39.25;14.85;;;;;;;0.35;89.20;99786.84;3496836;28;20106;-48
2020/12/11 02:32:21;;;;;;;31.73;14.38;;;;;;;0.34;89.01;99785.94;3492617;28;20221;-48
2020/12/11 02:34:03;;;;;;;31.15;15.57;;;;;;;0.35;88.87;99797.03;3496260;28;20079;-49
2020/12/11 02:35:44;;;;;;;28.10;13.75;;;;;;;0.36;89.03;99801.31;3494852;28;20083;-43
2020/12/11 02:37:27;;;;;;;30.35;13.52;;;;;;;0.35;88.96;99792.81;3496193;28;20048;-43
2020/12/11 02:39:08;;;;;;;34.40;14.48;;;;;;;0.35;89.00;99794.47;3492752;28;20086;-43
2020/12/11 02:40:51;;;;;;;37.45;14.50;;;;;;;0.36;88.79;99791.13;3496149;28;20512;-49
2020/12/11 02:42:34;;;;;;;30.92;15.00;;;;;;;0.35;88.98;99797.91;3494473;28;20063;-43
2020/12/11 02:44:15;;;;;;;29.20;14.38;;;;;;;0.35;89.12;99784.28;3494571;28;20138;-50
2020/12/11 02:45:56;;;;;;;31.98;13.95;;;;;;;0.35;88.83;99799.59;3493942;28;20051;-48
2020/12/11 02:47:38;;;;;;;29.95;12.80;;;;;;;0.34;88.74;99797.81;3494383;28;20045;-49
2020/12/11 02:49:19;;;;;;;35.78;16.13;;;;;;;0.35;88.78;99809.78;3494400;28;20084;-50
2020/12/11 02:51:01;;;;;;;28.05;12.95;;;;;;;0.34;89.04;99797.81;3494455;28;20048;-48
2020/12/11 02:52:43;;;;;;;32.97;14.82;;;;;;;0.33;89.06;99804.59;3494893;28;20045;-43
2020/12/11 02:54:24;;;;;;;27.08;13.23;;;;;;;0.34;89.04;99810.56;3495134;28;20063;-42
2020/12/11 02:56:06;;;;;;;31.77;14.35;;;;;;;0.33;88.84;99802.06;3495504;28;20072;-42
2020/12/11 02:57:47;;;;;;;32.38;15.23;;;;;;;0.33;88.96;99803.69;3492224;28;20057;-43
2020/12/11 02:59:29;;;;;;;36.88;15.27;;;;;;;0.32;88.97;99796.84;3496290;28;20044;-51
2020/12/11 03:01:10;;;;;;;32.13;15.00;;;;;;;0.32;88.77;99796.84;3491459;28;20087;-49
2020/12/11 03:02:51;;;;;;;30.95;14.95;;;;;;;0.31;88.62;99797.63;3496251;28;20049;-50
2020/12/11 03:04:33;;;;;;;23.65;12.35;;;;;;;0.32;88.91;99796.84;3489012;28;20054;-42
2020/12/11 03:06:15;;;;;;;27.25;12.40;;;;;;;0.29;89.01;99797.53;3495934;28;20076;-49
2020/12/11 03:07:57;;;;;;;31.33;12.77;;;;;;;0.30;88.98;99789.09;3492209;28;20126;-49
2020/12/11 03:09:38;;;;;;;29.05;13.70;;;;;;;0.30;88.71;99796.75;3495943;28;20076;-49
2020/12/11 03:11:20;;;;;;;29.92;14.10;;;;;;;0.30;88.63;99794.22;3492778;28;20056;-42
2020/12/11 03:13:01;;;;;;;31.42;14.43;;;;;;;0.30;88.86;99796.75;3495614;28;20052;-43
2020/12/11 03:14:43;;;;;;;30.80;13.55;;;;;;;0.30;88.98;99790.78;3491636;28;20074;-49
2020/12/11 03:16:24;;;;;;;32.42;14.32;;;;;;;0.29;88.75;99789.03;3495813;28;20094;-51
2020/12/11 03:18:06;;;;;;;32.08;13.40;;;;;;;0.28;88.57;99792.34;3489529;28;20063;-52
2020/12/11 03:19:47;;;;;;;30.60;13.65;;;;;;;0.28;88.76;99803.47;3494490;28;20535;-49
2020/12/11 03:21:29;;;;;;;32.60;13.80;;;;;;;0.28;88.89;99792.34;3489813;28;20452;-49
2020/12/11 03:23:11;;;;;;;35.60;14.27;;;;;;;0.27;88.61;99788.06;3495521;28;20048;-50
2020/12/11 03:24:52;;;;;;;26.88;13.57;;;;;;;0.27;88.67;99788.06;3488755;28;20052;-53
2020/12/11 03:26:34;;;;;;;32.63;12.85;;;;;;;0.28;88.73;99784.69;3495843;28;20139;-49
2020/12/11 03:28:15;;;;;;;32.50;13.60;;;;;;;0.27;88.76;99791.47;3491066;28;20554;-49
2020/12/11 03:29:57;;;;;;;33.78;14.13;;;;;;;0.26;88.71;99787.19;3495286;28;20134;-49
2020/12/11 03:31:38;;;;;;;31.85;13.40;;;;;;;0.27;88.52;99788.06;3490698;28;20053;-42
2020/12/11 03:33:20;;;;;;;30.95;14.23;;;;;;;0.26;88.39;99791.38;3493738;28;20071;-42
2020/12/11 03:35:01;;;;;;;32.67;14.00;;;;;;;0.25;88.67;99794.75;3491051;28;20076;-50
2020/12/11 03:36:42;;;;;;;37.75;14.07;;;;;;;0.24;88.40;99796.41;3495877;28;20160;-41
2020/12/11 03:38:25;;;;;;;26.63;12.27;;;;;;;0.24;88.67;99793.84;3491020;28;20127;-41
2020/12/11 03:40:06;;;;;;;32.80;13.90;;;;;;;0.22;88.43;99791.25;3493913;28;20056;-42
2020/12/11 03:41:49;;;;;;;30.80;13.70;;;;;;;0.21;88.65;99793.69;3492180;28;20044;-41
2020/12/11 03:43:31;;;;;;;;;;;;;;;0.21;88.55;99794.56;3495237;28;20413;-44
2020/12/11 03:45:13;;;;;;;27.27;12.30;;;;;;;0.21;88.51;99796.25;3492751;28;20026;-42
2020/12/11 03:46:55;;;;;;;33.13;13.85;;;;;;;0.21;88.87;99796.25;3494457;28;20047;-42
2020/12/11 03:48:36;;;;;;;32.88;13.70;;;;;;;0.20;88.56;99797.91;3493368;28;20098;-52
2020/12/11 03:50:18;;;;;;;32.13;14.75;;;;;;;0.19;88.46;99800.41;3492984;28;20142;-42
2020/12/11 03:51:59;;;;;;;31.48;13.50;;;;;;;0.18;88.43;99803.72;3493502;28;20047;-51
2020/12/11 03:53:41;;;;;;;32.45;14.27;;;;;;;0.18;88.63;99804.59;3493539;28;20053;-42
2020/12/11 03:55:23;;;;;;;36.55;14.32;;;;;;;0.17;88.32;99807.06;3494035;28;20049;-42
2020/12/11 03:57:04;;;;;;;27.67;12.77;;;;;;;0.16;88.75;99803.63;3492435;28;20044;-42
2020/12/11 03:58:46;;;;;;;28.50;14.05;;;;;;;0.15;88.68;99796.75;3492771;28;20090;-42
2020/12/11 04:00:27;;;;;;;27.10;12.60;;;;;;;0.14;88.67;99797.56;3489605;28;20076;-41
2020/12/11 04:02:12;;;;;;;26.35;12.90;;;;;;;0.15;88.51;99801.00;3494549;28;20189;-42
2020/12/11 04:03:55;;;;;;;29.52;13.40;;;;;;;0.14;88.70;99794.16;3492297;28;20129;-52
2020/12/11 04:05:36;;;;;;;33.78;13.55;;;;;;;0.13;88.58;99794.94;3492645;28;20082;-51
2020/12/11 04:07:17;;;;;;;27.48;13.07;;;;;;;0.12;88.60;99800.81;3492590;28;20537;-54
2020/12/11 04:08:59;;;;;;;28.33;12.70;;;;;;;0.11;88.67;99799.94;3494462;28;20072;-42
2020/12/11 04:10:41;;;;;;;25.50;12.50;;;;;;;0.11;88.77;99801.63;3492671;28;20589;-42
2020/12/11 04:12:22;;;;;;;26.08;12.73;;;;;;;0.11;88.64;99797.38;3493924;28;20048;-41
2020/12/11 04:14:04;;;;;;;34.05;14.40;;;;;;;0.10;88.57;99802.41;3492661;28;20049;-41
2020/12/11 04:15:46;;;;;;;28.73;12.80;;;;;;;0.09;88.59;99809.19;3495743;28;20481;-52
2020/12/11 04:17:27;;;;;;;28.85;12.48;;;;;;;0.08;88.73;99804.84;3487706;28;20059;-41
2020/12/11 04:19:09;;;;;;;30.65;13.27;;;;;;;0.07;88.28;99815.88;3494485;28;20055;-41
2020/12/11 04:20:50;;;;;;;27.67;12.95;;;;;;;0.07;88.43;99822.66;3491394;28;20055;-42
2020/12/11 04:22:32;;;;;;;30.63;13.98;;;;;;;0.05;88.59;99807.25;3495537;28;20076;-41
2020/12/11 04:24:14;;;;;;;32.55;13.90;;;;;;;0.04;88.28;99808.03;3488927;28;20375;-51
2020/12/11 04:25:55;;;;;;;28.20;12.45;;;;;;;0.03;88.48;99802.06;3495515;28;20040;-53
2020/12/11 04:27:37;;;;;;;32.80;13.55;;;;;;;0.02;88.43;99809.63;3491425;28;20436;-53
2020/12/11 04:29:18;;;;;;;32.05;13.82;;;;;;;0.01;88.39;99807.84;3495203;28;20425;-53
2020/12/11 04:31:00;;;;;;;32.80;14.02;;;;;;;0.01;88.49;99808.75;3490299;28;20080;-50
2020/12/11 04:32:42;;;;;;;31.55;14.02;;;;;;;-0.01;88.32;99807.75;3495672;28;20045;-53
2020/12/11 04:34:24;;;;;;;29.50;13.88;;;;;;;-0.02;88.41;99802.59;3488684;28;20052;-54
2020/12/11 04:36:06;;;;;;;30.83;12.65;;;;;;;-0.04;88.58;99807.59;3495517;28;20044;-55
2020/12/11 04:37:47;;;;;;;32.90;13.30;;;;;;;-0.04;88.48;99807.59;3490540;28;20694;-54
2020/12/11 04:39:29;;;;;;;31.25;12.77;;;;;;;-0.06;88.37;99806.63;3495206;28;20076;-55
2020/12/11 04:41:14;;;;;;;32.08;13.48;;;;;;;-0.07;88.15;99809.97;3493424;28;20197;-54
2020/12/11 04:42:56;;;;;;;24.60;12.65;;;;;;;-0.07;88.38;99812.50;3494977;28;20048;-55
2020/12/11 04:44:38;;;;;;;26.48;12.27;;;;;;;-0.09;88.14;99816.66;3492186;28;20653;-54
2020/12/11 04:46:20;;;;;;;26.48;12.05;;;;;;;-0.09;88.44;99809.00;3493944;28;20491;-55
2020/12/11 04:48:01;;;;;;;25.30;12.10;;;;;;;-0.11;88.44;99817.34;3491680;28;20055;-55
2020/12/11 04:49:43;;;;;;;30.48;12.38;;;;;;;-0.11;88.43;99822.44;3493932;28;20087;-55
2020/12/11 04:51:29;;;;;;;27.27;11.85;;;;;;;-0.12;88.46;99829.22;3493344;28;20129;-55
2020/12/11 04:53:15;;;;;;;25.63;11.65;;;;;;;-0.12;88.30;99836.00;3490927;28;20045;-43
2020/12/11 04:54:59;;;;;;;24.83;11.80;;;;;;;-0.12;88.42;99829.22;3492661;28;20054;-42
2020/12/11 04:56:41;;;;;;;28.15;11.57;;;;;;;-0.14;88.25;99835.91;3492666;28;20094;-42
2020/12/11 04:58:26;;;;;;;28.50;12.57;;;;;;;-0.16;88.03;99829.84;3494955;28;20513;-43
2020/12/11 05:00:08;;;;;;;32.47;12.82;;;;;;;-0.16;88.08;99843.44;3487200;28;20175;-52
2020/12/11 05:01:49;;;;;;;31.70;12.93;;;;;;;-0.16;88.28;99843.44;3494450;28;20049;-56
2020/12/11 05:03:33;;;;;;;27.05;11.90;;;;;;;-0.16;88.10;99846.00;3491219;28;20052;-41
2020/12/11 05:05:15;;;;;;;;;;;;;;;-0.17;87.91;99840.81;3494245;28;20049;-41
2020/12/11 05:06:56;;;;;;;26.25;11.23;;;;;;;-0.17;88.01;99845.91;3490694;28;19975;-41
2020/12/11 05:08:38;;;;;;;22.70;11.23;;;;;;;-0.18;87.96;99855.22;3495350;28;20503;-55
2020/12/11 05:10:20;;;;;;;33.63;12.55;;;;;;;-0.19;87.96;99845.81;3490241;28;20088;-41
2020/12/11 05:12:13;;;;;;;22.50;11.00;;;;;;;-0.19;88.28;99853.47;3495130;28;20102;-41
2020/12/11 05:13:55;;;;;;;30.25;12.35;;;;;;;-0.18;88.28;99856.91;3492277;28;20064;-42
2020/12/11 05:15:36;;;;;;;25.92;11.60;;;;;;;-0.19;88.28;99847.47;3494481;28;20045;-41
2020/12/11 05:17:17;;;;;;;28.00;12.02;;;;;;;-0.19;88.19;99850.91;3491177;28;20049;-41
2020/12/11 05:19:03;;;;;;;29.65;11.25;;;;;;;-0.20;88.26;99855.91;3491723;28;20415;-54
2020/12/11 05:20:45;;;;;;;25.08;11.73;;;;;;;-0.21;88.37;99855.03;3492641;28;20106;-56
2020/12/11 05:22:31;;;;;;;29.10;12.02;;;;;;;-0.22;88.22;99854.94;3493599;28;20049;-56
2020/12/11 05:24:12;;;;;;;23.10;11.07;;;;;;;-0.24;87.90;99856.53;3494166;28;20080;-41
2020/12/11 05:25:59;;;;;;;28.35;12.13;;;;;;;-0.27;87.78;99854.69;3493985;28;20049;-41
2020/12/11 05:27:42;;;;;;;26.63;11.75;;;;;;;-0.31;87.61;99862.91;3496075;28;20557;-41
2020/12/11 05:29:29;;;;;;;25.13;10.70;;;;;;;-0.32;87.66;99871.38;3493989;28;20053;-42
2020/12/11 05:31:11;;;;;;;24.88;11.30;;;;;;;-0.34;87.82;99867.84;3495603;28;20080;-56
2020/12/11 05:32:54;;;;;;;27.52;11.93;;;;;;;-0.36;87.72;99872.88;3494084;28;20059;-56
2020/12/11 05:34:36;;;;;;;26.00;12.85;;;;;;;-0.39;87.45;99866.69;3497719;28;20076;-41
2020/12/11 05:36:17;;;;;;;25.42;11.43;;;;;;;-0.41;87.59;99869.16;3490096;28;20451;-41
2020/12/11 05:38:02;;;;;;;27.90;12.90;;;;;;;-0.44;87.48;99858.75;3497399;28;20048;-41
2020/12/11 05:39:43;;;;;;;29.60;12.90;;;;;;;-0.46;87.10;99869.66;3492209;28;20497;-41
2020/12/11 05:41:35;;;;;;;29.50;13.68;;;;;;;-0.49;87.34;99864.38;3497353;28;20086;-41
2020/12/11 05:43:17;;;;;;;27.88;11.80;;;;;;;-0.52;87.65;99865.06;3492398;28;20052;-41
2020/12/11 05:44:59;;;;;;;31.65;13.18;;;;;;;-0.53;87.38;99869.28;3496005;28;20052;-41
2020/12/11 05:46:40;;;;;;;32.17;13.07;;;;;;;-0.55;87.12;99872.53;3493638;28;20522;-41
2020/12/11 05:48:23;;;;;;;24.33;11.30;;;;;;;-0.56;87.54;99868.22;3496956;28;20131;-55
2020/12/11 05:50:08;;;;;;;28.80;12.40;;;;;;;-0.60;86.83;99867.16;3492979;28;20074;-55
2020/12/11 05:51:55;;;;;;;31.77;12.30;;;;;;;-0.63;86.98;99866.94;3497476;28;20316;-55
2020/12/11 05:53:37;;;;;;;32.00;12.98;;;;;;;-0.64;87.21;99857.56;3494768;28;20072;-56
2020/12/11 05:55:21;;;;;;;28.90;12.85;;;;;;;-0.65;87.15;99868.53;3495490;28;20044;-41
2020/12/11 05:57:04;;;;;;;33.45;12.68;;;;;;;-0.65;87.29;99865.13;3493980;28;20047;-40
2020/12/11 05:58:50;;;;;;;27.27;12.23;;;;;;;-0.66;87.17;99863.34;3495393;28;20140;-41
2020/12/11 06:00:33;;;;;;;27.17;11.40;;;;;;;-0.68;87.42;99860.69;3494047;28;20432;-41
2020/12/11 06:02:18;;;;;;;34.65;13.68;;;;;;;-0.71;87.03;99863.06;3493572;28;20048;-41
2020/12/11 06:04:00;;;;;;;28.35;14.07;;;;;;;-0.72;87.18;99859.63;3496740;28;20040;-41
2020/12/11 06:05:41;;;;;;;28.25;12.90;;;;;;;-0.73;87.12;99867.16;3494620;28;20048;-41
2020/12/11 06:07:24;;;;;;;32.47;12.57;;;;;;;-0.76;87.22;99861.91;3496169;28;20535;-41
2020/12/11 06:09:10;;;;;;;26.27;13.43;;;;;;;-0.77;87.33;99863.56;3493291;28;20059;-53
2020/12/11 06:10:51;;;;;;;27.45;12.25;;;;;;;-0.78;87.53;99859.25;3496972;28;20053;-54
2020/12/11 06:12:34;;;;;;;32.17;13.88;;;;;;;-0.78;87.53;99866.91;3491688;28;20435;-41
2020/12/11 06:14:23;;;;;;;30.40;13.98;;;;;;;-0.78;87.38;99855.84;3497040;28;20413;-41
2020/12/11 06:16:06;;;;;;;30.55;13.20;;;;;;;-0.79;87.81;99869.34;3491386;28;20095;-42
2020/12/11 06:17:52;;;;;;;29.40;12.57;;;;;;;-0.81;87.50;99870.94;3497485;28;20045;-41
2020/12/11 06:19:35;;;;;;;28.80;11.65;;;;;;;-0.82;87.54;99864.94;3492922;28;20045;-41
2020/12/11 06:21:17;;;;;;;27.02;11.35;;;;;;;-0.81;87.41;99868.38;3496815;28;20509;-41
2020/12/11 06:23:20;;;;;;;27.88;12.70;;;;;;;-0.84;87.08;99863.97;3492691;28;20055;-41
2020/12/11 06:25:23;;;;;;;31.77;12.25;;;;;;;-0.85;87.20;99869.88;3482584;28;20422;-41
2020/12/11 06:27:05;;;;;;;24.63;11.77;;;;;;;-0.88;86.64;99874.75;3497415;28;20055;-41
2020/12/11 06:28:49;;;;;;;31.83;12.25;;;;;;;-0.91;86.66;99866.91;3490100;28;20056;-42
2020/12/11 06:30:32;;;;;;;25.45;10.98;;;;;;;-0.94;86.88;99872.72;3497719;28;20051;-42
2020/12/11 06:32:14;;;;;;;30.17;12.48;;;;;;;-0.96;86.82;99870.84;3494449;28;20531;-42
2020/12/11 06:33:57;;;;;;;26.17;12.05;;;;;;;-0.99;86.76;99871.53;3497538;28;20052;-55
2020/12/11 06:35:56;;;;;;;24.17;12.10;;;;;;;-1.02;86.01;99865.38;3492462;28;20076;-54
2020/12/11 06:37:38;;;;;;;26.88;11.88;;;;;;;-1.04;86.24;99870.38;3494703;28;20504;-56
2020/12/11 06:39:40;;;;;;;27.25;12.82;;;;;;;-1.07;86.29;99874.38;3494579;28;20126;-41
2020/12/11 06:41:39;;;;;;;28.13;12.35;;;;;;;-1.08;86.63;99876.06;3487780;28;20079;-43
2020/12/11 06:43:37;;;;;;;32.30;13.93;;;;;;;-1.10;86.45;99877.59;3491563;28;20390;-41
2020/12/11 06:45:22;;;;;;;29.77;12.45;;;;;;;-1.11;86.57;99874.19;3491400;28;20045;-55
2020/12/11 06:47:03;;;;;;;;;;;;;;;-1.13;86.67;99874.88;3497676;28;20489;-55
2020/12/11 06:49:08;;;;;;;25.75;11.30;;;;;;;-1.17;86.45;99872.91;3492399;28;19928;-55
2020/12/11 06:51:03;;;;;;;32.78;12.40;;;;;;;-1.21;86.38;99876.94;3492369;28;20063;-55
2020/12/11 06:52:45;;;;;;;34.05;12.63;;;;;;;-1.24;86.36;99868.22;3494832;28;20541;-55
2020/12/11 06:54:51;;;;;;;23.95;10.32;;;;;;;-1.27;86.51;99863.84;3492634;28;20098;-55
2020/12/11 06:56:41;;;;;;;30.08;13.50;;;;;;;-1.28;86.36;99877.31;3495242;28;20051;-55
2020/12/11 06:58:22;;;;;;;33.85;13.13;;;;;;;-1.29;86.64;99868.81;3490468;28;20091;-54
2020/12/11 07:00:34;;;;;;;29.63;12.50;;;;;;;-1.22;88.03;99866.66;3496437;28;20040;-56
2020/12/11 07:02:16;;;;;;;35.83;13.82;;;;;;;-1.20;87.21;99863.44;3493993;28;20584;-53
2020/12/11 07:03:58;;;;;;;32.45;12.68;;;;;;;-1.20;86.72;99858.34;3493673;28;20143;-56
2020/12/11 07:05:39;;;;;;;25.65;11.57;;;;;;;-1.21;86.21;99863.34;3494394;28;20048;-55
2020/12/11 07:07:29;;;;;;;26.13;11.65;;;;;;;-1.23;86.26;99857.28;3491458;28;20701;-56
2020/12/11 07:09:11;;;;;;;28.48;12.50;;;;;;;-1.23;85.84;99855.59;3494751;28;20055;-41
2020/12/11 07:10:52;;;;;;;25.20;12.25;;;;;;;-1.25;86.30;99862.25;3493239;28;20056;-41
2020/12/11 07:12:34;;;;;;;29.48;12.80;;;;;;;-1.24;86.48;99852.94;3484526;28;20048;-42
2020/12/11 07:14:15;;;;;;;30.77;12.13;;;;;;;-1.23;86.42;99854.72;3487831;28;20135;-56
2020/12/11 07:15:59;;;;;;;26.08;13.90;;;;;;;-1.24;85.95;99853.84;3495710;28;20490;-55
2020/12/11 07:17:42;;;;;;;35.05;14.77;;;;;;;-1.11;88.24;99855.50;3494678;28;20543;-54
2020/12/11 07:19:24;;;;;;;33.08;13.30;;;;;;;-1.03;86.70;99854.31;3495359;28;20051;-54
2020/12/11 07:21:05;;;;;;;22.90;11.50;;;;;;;-1.02;85.65;99847.56;3492834;28;20043;-54
2020/12/11 07:22:47;;;;;;;25.92;11.48;;;;;;;-1.04;85.60;99851.69;3497053;28;20560;-41
2020/12/11 07:24:29;;;;;;;30.63;12.55;;;;;;;-1.12;84.88;99852.09;3485899;28;20572;-41
2020/12/11 07:26:11;;;;;;;27.52;12.60;;;;;;;-1.16;85.20;99847.56;3492766;28;20091;-41
2020/12/11 07:27:59;;;;;;;26.98;12.85;;;;;;;-1.22;84.83;99843.75;3492857;28;20071;-41
2020/12/11 07:29:47;;;;;;;29.33;13.05;;;;;;;-1.31;84.59;99844.94;3493983;28;20059;-41
2020/12/11 07:31:33;;;;;;;35.20;12.98;;;;;;;-1.37;84.30;99843.66;3492591;28;20417;-41
2020/12/11 07:33:15;;;;;;;24.88;11.10;;;;;;;-1.44;84.48;99847.47;3491326;28;20053;-42
2020/12/11 07:34:57;;;;;;;35.40;13.02;;;;;;;-1.51;84.49;99843.66;3493073;28;20045;-41
2020/12/11 07:36:39;;;;;;;28.27;12.85;;;;;;;-1.54;84.74;99840.03;3491817;28;20067;-41
2020/12/11 07:38:27;;;;;;;29.15;12.25;;;;;;;-1.59;84.84;99843.97;3493333;28;20059;-41
2020/12/11 07:40:13;;;;;;;27.00;11.65;;;;;;;-1.62;84.79;99846.31;3493221;28;20072;-41
2020/12/11 07:41:55;;;;;;;29.05;12.85;;;;;;;-1.64;85.74;99846.22;3493720;28;20102;-42
2020/12/11 07:43:45;;;;;;;26.27;12.77;;;;;;;-1.70;84.97;99841.63;3493046;28;20056;-41
2020/12/11 07:45:28;;;;;;;25.88;11.73;;;;;;;-1.72;84.96;99853.34;3494256;28;20048;-42
2020/12/11 07:47:12;;;;;;;26.48;11.45;;;;;;;-1.74;85.41;99852.34;3492619;28;20044;-41
2020/12/11 07:48:54;;;;;;;26.73;12.98;;;;;;;-1.76;85.68;99848.81;3493966;28;20567;-42
2020/12/11 07:50:37;;;;;;;30.13;12.80;;;;;;;-1.77;85.97;99849.63;3493174;28;20142;-42
2020/12/11 07:52:27;;;;;;;28.25;13.02;;;;;;;-1.77;85.67;99851.25;3491237;28;20052;-42
2020/12/11 07:54:09;;;;;;;28.02;13.40;;;;;;;-1.79;85.62;99851.16;3487609;28;20473;-42
2020/12/11 07:55:51;;;;;;;30.88;14.07;;;;;;;-1.81;85.49;99846.78;3494438;28;20048;-42
2020/12/11 07:57:32;;;;;;;27.45;12.68;;;;;;;-1.83;85.52;99843.25;3490453;28;20442;-45